Time;durP1;ratioP1;P1;durP2;ratioP2;P2;SDS_P1;SDS_P2;PMS_P1;PMS_P2;Temp;Humidity;BMP_temperature;BMP_pressure;BME280_temperature;BME280_humidity;BME280_pressure;Samples;Min_cycle;Max_cycle;Signal;HPM_P1;HPM_P2
2021/03/03 00:02:13;;;;;;;29.13;14.70;;;2.00;99.90;;;;;;4975610;28;20200;-92
2021/03/03 00:04:39;;;;;;;19.37;11.57;;;2.00;99.90;;;;;;4975491;28;20168;-92
2021/03/03 00:07:05;;;;;;;16.70;10.33;;;2.00;99.90;;;;;;4975164;28;20223;-93
2021/03/03 00:09:31;;;;;;;25.23;12.70;;;2.00;99.90;;;;;;4975444;28;20165;-92
2021/03/03 00:11:56;;;;;;;27.33;14.47;;;1.90;99.90;;;;;;4975307;28;20275;-92
2021/03/03 00:14:22;;;;;;;33.70;16.17;;;1.90;99.90;;;;;;4974965;28;20263;-92
2021/03/03 00:16:48;;;;;;;43.47;15.10;;;1.90;99.90;;;;;;4975153;28;20672;-93
2021/03/03 00:19:14;;;;;;;48.60;16.07;;;1.90;99.90;;;;;;4975237;28;20207;-92
2021/03/03 00:21:39;;;;;;;73.93;19.60;;;1.90;99.90;;;;;;4975636;28;20668;-93
2021/03/03 00:24:06;;;;;;;66.97;19.73;;;1.90;99.90;;;;;;4975275;28;20161;-92
2021/03/03 00:26:32;;;;;;;81.93;20.73;;;1.80;99.90;;;;;;4974986;28;20668;-93
2021/03/03 00:28:57;;;;;;;164.60;23.17;;;1.80;99.90;;;;;;4975074;28;20161;-93
2021/03/03 00:31:23;;;;;;;56.93;21.90;;;1.80;99.90;;;;;;4975003;28;20200;-92
2021/03/03 00:33:49;;;;;;;119.70;22.87;;;1.80;99.90;;;;;;4974442;28;20180;-94
2021/03/03 00:36:16;;;;;;;81.93;23.10;;;1.80;99.90;;;;;;4974727;28;20197;-92
2021/03/03 00:38:41;;;;;;;70.77;20.83;;;1.80;99.90;;;;;;4974827;28;20260;-93
2021/03/03 00:41:07;;;;;;;53.90;20.20;;;1.70;99.90;;;;;;4974659;28;20287;-90
2021/03/03 00:43:33;;;;;;;79.27;21.80;;;1.70;99.90;;;;;;4974800;28;20625;-91
2021/03/03 00:46:00;;;;;;;47.43;20.77;;;1.70;99.90;;;;;;4974699;28;20164;-93
2021/03/03 00:48:29;;;;;;;55.10;19.87;;;1.70;99.90;;;;;;4974760;28;20212;-93
2021/03/03 00:50:55;;;;;;;44.37;19.90;;;1.70;99.90;;;;;;4974686;28;20179;-93
2021/03/03 00:53:21;;;;;;;43.20;21.00;;;1.70;99.90;;;;;;4974654;28;20173;-90
2021/03/03 00:55:51;;;;;;;34.13;17.97;;;1.70;99.90;;;;;;4974630;28;20629;-92
2021/03/03 00:58:18;;;;;;;34.90;16.87;;;1.70;99.90;;;;;;4974381;28;20732;-92
2021/03/03 01:00:45;;;;;;;31.53;17.17;;;1.80;99.90;;;;;;4974536;28;20197;-92
2021/03/03 01:03:10;;;;;;;32.33;16.50;;;1.90;99.90;;;;;;4974407;28;20169;-94
2021/03/03 01:05:40;;;;;;;33.67;16.43;;;1.90;99.90;;;;;;4974442;28;20176;-92
2021/03/03 01:08:06;;;;;;;30.27;17.00;;;1.80;99.90;;;;;;4974663;28;20184;-92
2021/03/03 01:10:32;;;;;;;32.60;17.13;;;1.80;99.90;;;;;;4974621;28;20172;-91
2021/03/03 01:12:59;;;;;;;35.73;17.33;;;1.70;99.90;;;;;;4974477;28;20230;-92
2021/03/03 01:15:25;;;;;;;31.13;16.43;;;1.70;99.90;;;;;;4974011;28;20231;-92
2021/03/03 01:17:52;;;;;;;31.50;16.73;;;1.50;99.90;;;;;;4974097;28;20197;-92
2021/03/03 01:20:18;;;;;;;33.20;16.80;;;1.50;99.90;;;;;;4974347;28;20625;-94
2021/03/03 01:22:44;;;;;;;34.73;16.97;;;1.40;99.90;;;;;;4977751;28;20215;-93
2021/03/03 01:25:10;;;;;;;33.07;18.00;;;1.40;99.90;;;;;;4993598;28;20179;-92
2021/03/03 01:27:35;;;;;;;33.03;16.77;;;1.60;99.90;;;;;;4993515;28;20191;-92
2021/03/03 01:30:01;;;;;;;33.23;16.53;;;1.40;99.90;;;;;;4994531;28;20169;-92
2021/03/03 01:32:28;;;;;;;29.40;15.70;;;1.50;99.90;;;;;;4993597;28;20197;-93
2021/03/03 01:34:54;;;;;;;29.33;15.47;;;1.40;99.90;;;;;;4993525;28;20637;-92
2021/03/03 01:37:19;;;;;;;33.43;16.80;;;1.50;99.90;;;;;;4993408;28;20213;-92
2021/03/03 01:39:45;;;;;;;29.67;15.83;;;1.40;99.90;;;;;;4993620;28;20554;-91
2021/03/03 01:42:11;;;;;;;29.20;15.70;;;1.40;99.90;;;;;;4993392;28;20243;-92
2021/03/03 01:44:37;;;;;;;31.03;16.50;;;1.30;99.90;;;;;;4993417;28;20172;-92
2021/03/03 01:47:03;;;;;;;28.50;15.37;;;1.20;99.90;;;;;;4997256;28;20199;-91
2021/03/03 01:49:29;;;;;;;29.20;15.57;;;1.00;99.90;;;;;;4997529;28;20195;-90
2021/03/03 01:51:55;;;;;;;30.43;16.70;;;1.10;99.90;;;;;;4997514;28;20183;-92
2021/03/03 01:54:21;;;;;;;31.23;16.93;;;1.20;99.90;;;;;;4997254;28;20179;-92
2021/03/03 01:56:46;;;;;;;30.77;15.60;;;1.30;99.90;;;;;;4997266;28;20203;-90
2021/03/03 01:59:12;;;;;;;27.40;14.97;;;1.30;99.90;;;;;;4997366;28;20184;-92
2021/03/03 02:01:38;;;;;;;27.53;14.93;;;1.10;99.90;;;;;;4997044;28;20394;-91
2021/03/03 02:04:04;;;;;;;24.17;13.97;;;1.10;99.90;;;;;;4997078;28;20204;-91
2021/03/03 02:06:53;;;;;;;22.53;13.30;;;1.00;99.90;;;;;;4996920;28;20320;-92
2021/03/03 02:09:30;;;;;;;24.17;13.30;;;0.90;99.90;;;;;;4996974;28;20176;-92
2021/03/03 02:11:58;;;;;;;21.90;12.87;;;0.70;99.90;;;;;;4998410;28;20646;-92
2021/03/03 02:14:27;;;;;;;22.10;13.00;;;0.70;99.90;;;;;;4996596;28;20182;-92
2021/03/03 02:16:55;;;;;;;21.53;13.03;;;0.80;99.90;;;;;;4996438;28;20209;-91
2021/03/03 02:19:30;;;;;;;29.90;15.07;;;1.00;99.90;;;;;;4996875;28;20196;-92
2021/03/03 02:22:12;;;;;;;29.00;15.27;;;0.90;99.90;;;;;;4996724;28;20201;-90
2021/03/03 02:25:16;;;;;;;29.83;15.97;;;1.00;99.90;;;;;;4977658;28;20194;-92
2021/03/03 02:27:42;;;;;;;29.30;14.17;;;1.00;99.90;;;;;;4953998;28;20202;-92
2021/03/03 02:30:09;;;;;;;29.93;14.60;;;0.80;99.90;;;;;;4977142;28;20265;-92
2021/03/03 02:32:36;;;;;;;32.23;15.97;;;0.70;99.90;;;;;;4976829;28;20188;-92
2021/03/03 02:35:02;;;;;;;30.40;15.23;;;0.80;99.90;;;;;;4977124;28;20716;-92
2021/03/03 02:37:28;;;;;;;27.90;14.27;;;0.80;99.90;;;;;;4976891;28;20196;-91
2021/03/03 02:42:30;;;;;;;29.23;14.20;;;0.80;99.90;;;;;;5127928;23;20230;-95
2021/03/03 02:44:56;;;;;;;29.43;14.90;;;1.00;99.90;;;;;;4978204;28;20212;-96
2021/03/03 02:47:22;;;;;;;26.60;14.63;;;1.00;99.90;;;;;;4977748;28;20180;-95
2021/03/03 02:49:48;;;;;;;27.80;14.90;;;0.90;99.90;;;;;;4976125;28;20500;-96
2021/03/03 02:52:14;;;;;;;24.87;13.40;;;1.00;99.90;;;;;;4971917;28;20285;-95
2021/03/03 02:54:43;;;;;;;23.90;13.40;;;1.00;99.90;;;;;;4997607;28;20275;-95
2021/03/03 02:57:09;;;;;;;28.80;14.17;;;1.00;99.90;;;;;;4984997;28;20638;-96
2021/03/03 02:59:39;;;;;;;25.80;13.90;;;0.90;99.90;;;;;;4977930;28;20173;-95
2021/03/03 03:02:10;;;;;;;22.87;12.50;;;1.00;99.90;;;;;;4977957;28;20234;-94
2021/03/03 03:04:39;;;;;;;27.53;15.10;;;1.00;99.90;;;;;;4977804;28;20174;-94
2021/03/03 03:07:16;;;;;;;23.03;12.50;;;0.90;99.90;;;;;;4977403;28;20187;-95
2021/03/03 03:09:43;;;;;;;23.43;11.87;;;0.90;99.90;;;;;;4978082;28;20180;-92
2021/03/03 03:12:22;;;;;;;21.67;12.73;;;0.70;99.90;;;;;;4977871;28;20235;-95
2021/03/03 03:14:51;;;;;;;25.17;13.70;;;0.50;99.90;;;;;;4977791;28;20182;-93
2021/03/03 03:17:18;;;;;;;20.73;12.70;;;0.60;99.90;;;;;;4962703;28;20183;-95
2021/03/03 03:19:47;;;;;;;21.57;12.23;;;0.70;99.90;;;;;;4958153;29;20177;-93
2021/03/03 03:22:16;;;;;;;25.00;14.10;;;0.60;99.90;;;;;;4965777;28;20220;-94
2021/03/03 03:24:43;;;;;;;25.77;13.57;;;0.60;99.90;;;;;;4997173;28;20176;-94
2021/03/03 03:27:11;;;;;;;23.20;13.47;;;0.70;99.90;;;;;;4996621;28;20222;-94
2021/03/03 03:29:39;;;;;;;21.10;12.07;;;0.70;99.90;;;;;;4997034;28;20674;-95
2021/03/03 03:32:05;;;;;;;29.53;14.23;;;0.80;99.90;;;;;;4996621;28;20646;-94
2021/03/03 03:34:33;;;;;;;25.63;12.60;;;0.70;99.90;;;;;;4996638;28;20179;-94
2021/03/03 03:36:59;;;;;;;24.43;13.47;;;0.60;99.90;;;;;;4996332;28;20190;-94
2021/03/03 03:39:25;;;;;;;21.10;12.23;;;0.80;99.90;;;;;;4996882;28;20176;-94
2021/03/03 03:41:51;;;;;;;19.93;12.00;;;0.70;99.90;;;;;;4996449;28;20248;-94
2021/03/03 03:44:25;;;;;;;23.83;12.47;;;0.70;99.90;;;;;;4996615;28;20193;-95
2021/03/03 03:46:51;;;;;;;24.43;13.47;;;0.70;99.90;;;;;;4996363;28;20272;-94
2021/03/03 03:49:18;;;;;;;21.77;12.63;;;0.70;99.90;;;;;;4996711;28;20521;-94
2021/03/03 03:51:44;;;;;;;22.87;12.77;;;0.80;99.90;;;;;;4996328;28;20570;-94
2021/03/03 03:54:10;;;;;;;23.60;13.43;;;0.70;99.90;;;;;;4996026;28;20181;-94
2021/03/03 03:56:39;;;;;;;25.37;13.87;;;0.70;99.90;;;;;;4996105;28;20198;-94
2021/03/03 03:59:04;;;;;;;26.27;14.67;;;0.60;99.90;;;;;;4996508;28;20210;-94
2021/03/03 04:01:30;;;;;;;29.93;15.67;;;0.60;99.90;;;;;;4995978;28;20272;-94
2021/03/03 04:03:59;;;;;;;28.70;15.33;;;0.80;99.90;;;;;;4995998;28;20200;-94
2021/03/03 04:06:28;;;;;;;30.60;15.47;;;0.80;99.90;;;;;;4996088;28;20613;-95
2021/03/03 04:08:54;;;;;;;26.47;14.00;;;0.70;99.90;;;;;;4995709;28;20194;-94
2021/03/03 04:11:19;;;;;;;25.17;14.13;;;0.60;99.90;;;;;;4995854;28;20175;-95
2021/03/03 04:13:47;;;;;;;26.43;13.23;;;0.70;99.90;;;;;;4995932;28;20183;-96
2021/03/03 04:16:13;;;;;;;29.30;14.87;;;0.70;99.90;;;;;;4995940;28;20258;-95
2021/03/03 04:18:38;;;;;;;28.63;14.80;;;0.60;99.90;;;;;;4995892;28;20214;-94
2021/03/03 04:21:04;;;;;;;27.27;14.77;;;0.70;99.90;;;;;;4995611;28;20550;-95
2021/03/03 04:23:30;;;;;;;31.13;14.67;;;0.70;99.90;;;;;;4980863;28;20190;-95
2021/03/03 04:25:56;;;;;;;28.80;14.80;;;0.70;99.90;;;;;;4976509;28;20184;-94
2021/03/03 04:28:22;;;;;;;27.13;14.03;;;0.70;99.90;;;;;;4977302;28;20210;-94
2021/03/03 04:30:48;;;;;;;27.60;13.50;;;0.70;99.90;;;;;;4976593;28;20179;-94
2021/03/03 04:33:15;;;;;;;27.53;15.40;;;0.70;99.90;;;;;;4976185;28;20644;-95
2021/03/03 04:35:41;;;;;;;27.23;15.13;;;0.70;99.90;;;;;;4976408;28;20180;-94
2021/03/03 04:38:09;;;;;;;26.53;14.30;;;0.80;99.90;;;;;;4975868;28;20188;-94
2021/03/03 04:40:35;;;;;;;24.37;14.47;;;0.70;99.90;;;;;;4976416;28;20261;-96
2021/03/03 04:43:03;;;;;;;24.63;14.00;;;0.70;99.90;;;;;;4976021;28;20289;-94
2021/03/03 04:45:29;;;;;;;29.63;15.13;;;0.70;99.90;;;;;;4976018;28;20172;-94
2021/03/03 04:47:54;;;;;;;31.77;14.87;;;0.70;99.90;;;;;;4976073;28;20618;-95
2021/03/03 04:50:20;;;;;;;28.13;14.80;;;0.70;99.90;;;;;;4975794;28;20636;-95
2021/03/03 04:52:50;;;;;;;26.33;15.20;;;0.70;99.90;;;;;;4975772;28;20525;-95
2021/03/03 04:55:16;;;;;;;28.13;14.73;;;0.70;99.90;;;;;;4975869;28;20184;-93
2021/03/03 04:57:42;;;;;;;28.77;15.47;;;0.60;99.90;;;;;;4975870;28;20233;-95
2021/03/03 05:00:08;;;;;;;27.93;15.70;;;0.70;99.90;;;;;;4975775;28;20181;-95
2021/03/03 05:02:34;;;;;;;26.40;14.20;;;0.70;99.90;;;;;;4975633;28;20217;-94
2021/03/03 05:05:00;;;;;;;26.77;14.70;;;0.70;99.90;;;;;;4975633;28;20276;-94
2021/03/03 05:07:25;;;;;;;26.53;14.07;;;0.70;99.90;;;;;;4975407;28;20200;-94
2021/03/03 05:09:51;;;;;;;25.70;13.83;;;0.80;99.90;;;;;;4975528;28;20234;-94
2021/03/03 05:12:17;;;;;;;24.80;14.40;;;0.70;99.90;;;;;;4976070;28;20183;-96
2021/03/03 05:14:45;;;;;;;27.50;15.37;;;0.60;99.90;;;;;;4975513;28;20183;-95
2021/03/03 05:17:11;;;;;;;25.63;14.63;;;0.60;99.90;;;;;;4975525;28;20179;-94
2021/03/03 05:19:36;;;;;;;27.43;15.47;;;0.60;99.90;;;;;;4975192;28;20180;-95
2021/03/03 05:22:02;;;;;;;27.50;16.10;;;0.60;99.90;;;;;;4975341;28;20204;-96
2021/03/03 05:24:28;;;;;;;31.17;15.50;;;0.60;99.90;;;;;;4975323;28;20197;-94
2021/03/03 05:26:54;;;;;;;29.47;15.37;;;0.50;99.90;;;;;;4975286;28;20202;-95
2021/03/03 05:29:20;;;;;;;26.97;15.20;;;0.50;99.90;;;;;;4975650;28;20612;-96
2021/03/03 05:31:45;;;;;;;29.57;15.27;;;0.60;99.90;;;;;;4975372;28;20183;-95
2021/03/03 05:34:27;;;;;;;25.47;14.50;;;0.60;99.90;;;;;;4975188;28;20494;-96
2021/03/03 05:36:54;;;;;;;26.30;14.77;;;0.60;99.90;;;;;;4975302;28;20275;-96
2021/03/03 05:39:19;;;;;;;30.80;15.33;;;0.60;99.90;;;;;;4975137;28;20704;-94
2021/03/03 05:41:45;;;;;;;30.13;14.13;;;0.60;99.90;;;;;;4975207;28;20334;-96
2021/03/03 05:44:14;;;;;;;29.17;15.20;;;0.60;99.90;;;;;;4974945;28;20176;-96
2021/03/03 05:46:42;;;;;;;26.93;15.03;;;0.60;99.90;;;;;;4975000;28;20183;-95
2021/03/03 05:49:15;;;;;;;29.10;15.53;;;0.50;99.90;;;;;;4975498;28;20664;-94
2021/03/03 05:51:41;;;;;;;28.13;15.70;;;0.50;99.90;;;;;;4975489;28;20599;-94
2021/03/03 05:54:08;;;;;;;26.57;15.10;;;0.50;99.90;;;;;;4974868;28;20532;-95
2021/03/03 05:56:35;;;;;;;30.47;16.83;;;0.50;99.90;;;;;;4975170;28;20176;-96
2021/03/03 05:59:01;;;;;;;30.17;16.10;;;0.60;99.90;;;;;;4975494;28;20556;-94
2021/03/03 06:01:27;;;;;;;23.73;13.80;;;0.60;99.90;;;;;;4974904;28;20263;-95
2021/03/03 06:03:57;;;;;;;28.93;15.77;;;0.60;99.90;;;;;;4975216;28;20215;-94
2021/03/03 06:06:23;;;;;;;28.03;15.00;;;0.50;99.90;;;;;;4974907;28;20271;-95
2021/03/03 06:08:49;;;;;;;31.60;15.90;;;0.60;99.90;;;;;;4975181;28;20178;-95
2021/03/03 06:11:15;;;;;;;28.67;15.60;;;0.60;99.90;;;;;;4975019;28;20303;-96
2021/03/03 06:13:59;;;;;;;27.43;15.20;;;0.60;99.90;;;;;;4974919;28;20243;-96
2021/03/03 06:16:25;;;;;;;33.90;17.07;;;0.60;99.90;;;;;;4963394;28;20178;-96
2021/03/03 06:18:53;;;;;;;27.27;14.57;;;0.60;99.90;;;;;;4975106;28;20272;-95
2021/03/03 06:21:27;;;;;;;28.20;15.27;;;0.70;99.90;;;;;;4970742;28;20246;-95
2021/03/03 06:24:08;;;;;;;30.47;15.93;;;0.70;99.90;;;;;;4971826;28;20258;-95
2021/03/03 06:26:35;;;;;;;27.97;15.73;;;0.70;99.90;;;;;;4960636;28;20218;-94
2021/03/03 06:29:01;;;;;;;31.10;15.97;;;0.70;99.90;;;;;;4960937;28;20188;-94
2021/03/03 06:31:31;;;;;;;28.10;15.27;;;0.80;99.90;;;;;;4965419;28;20194;-95
2021/03/03 06:34:16;;;;;;;34.33;15.87;;;0.90;99.90;;;;;;4956885;29;20259;-95
2021/03/03 06:36:44;;;;;;;29.33;15.33;;;0.90;99.90;;;;;;4958274;29;20199;-94
2021/03/03 06:39:30;;;;;;;26.17;15.30;;;0.90;99.90;;;;;;4958789;28;20187;-96
2021/03/03 06:42:02;;;;;;;24.60;14.90;;;0.80;99.90;;;;;;4960939;28;20317;-94
2021/03/03 06:44:51;;;;;;;25.80;14.60;;;0.80;99.90;;;;;;4986787;28;20208;-94
2021/03/03 06:47:18;;;;;;;28.60;15.50;;;0.90;99.90;;;;;;4966560;28;20584;-94
2021/03/03 06:49:45;;;;;;;30.57;16.10;;;0.90;99.90;;;;;;4976278;28;20266;-94
2021/03/03 06:52:11;;;;;;;28.30;16.10;;;0.90;99.90;;;;;;4977287;28;20188;-95
2021/03/03 06:54:37;;;;;;;29.37;15.30;;;1.00;99.90;;;;;;4976859;28;20194;-94
2021/03/03 06:57:10;;;;;;;30.37;15.77;;;1.00;99.90;;;;;;4973604;28;20612;-95
2021/03/03 06:59:42;;;;;;;31.70;15.73;;;1.10;99.90;;;;;;4966183;28;20648;-94
2021/03/03 07:02:08;;;;;;;28.97;14.77;;;1.10;99.90;;;;;;4970646;28;20220;-95
2021/03/03 07:04:36;;;;;;;32.17;15.30;;;1.10;99.90;;;;;;4978655;28;20199;-95
2021/03/03 07:07:15;;;;;;;29.20;15.50;;;1.20;99.90;;;;;;4977743;28;20235;-96
2021/03/03 07:09:59;;;;;;;29.00;16.00;;;1.30;99.90;;;;;;4977082;28;20180;-95
2021/03/03 07:12:26;;;;;;;26.93;15.23;;;1.30;99.90;;;;;;4977170;28;20169;-95
2021/03/03 07:15:06;;;;;;;29.13;15.33;;;1.40;99.90;;;;;;4977715;28;20185;-95
2021/03/03 07:17:36;;;;;;;26.20;14.30;;;1.40;99.90;;;;;;4977773;28;20180;-95
2021/03/03 07:20:17;;;;;;;27.80;15.43;;;1.60;99.90;;;;;;4977756;28;20180;-96
2021/03/03 07:22:47;;;;;;;30.53;15.83;;;1.60;99.90;;;;;;4977330;28;20314;-95
2021/03/03 07:25:15;;;;;;;27.07;15.33;;;1.70;99.90;;;;;;4978913;28;20176;-96
2021/03/03 07:27:42;;;;;;;26.77;15.03;;;1.80;99.90;;;;;;4978731;28;20204;-96
2021/03/03 07:30:13;;;;;;;27.33;15.00;;;1.90;99.90;;;;;;4979980;28;20207;-96
2021/03/03 07:32:39;;;;;;;28.33;15.07;;;2.00;99.90;;;;;;4979882;28;20239;-96
2021/03/03 07:35:07;;;;;;;27.60;15.67;;;2.10;99.90;;;;;;4981409;28;20184;-96
2021/03/03 07:37:46;;;;;;;27.23;15.47;;;2.20;99.90;;;;;;4981108;28;20177;-95
2021/03/03 07:40:14;;;;;;;24.83;14.40;;;2.30;99.90;;;;;;4980699;28;20172;-95
2021/03/03 07:42:45;;;;;;;29.53;15.83;;;2.40;99.90;;;;;;4980925;28;20236;-96
2021/03/03 07:45:13;;;;;;;29.60;15.13;;;2.50;99.90;;;;;;4982436;28;20173;-96
2021/03/03 07:47:42;;;;;;;27.73;14.93;;;2.50;99.90;;;;;;4981067;28;20185;-96
2021/03/03 07:50:16;;;;;;;27.57;14.27;;;2.70;99.90;;;;;;4983190;28;20517;-96
2021/03/03 07:52:55;;;;;;;26.07;14.37;;;2.80;99.90;;;;;;4992393;28;20187;-96
2021/03/03 07:55:22;;;;;;;25.20;14.53;;;2.90;99.90;;;;;;4999174;28;20178;-95
2021/03/03 07:57:52;;;;;;;28.53;15.57;;;3.00;99.90;;;;;;5002989;28;20503;-96
2021/03/03 08:00:22;;;;;;;31.53;15.03;;;3.00;99.90;;;;;;4962481;28;20251;-96
2021/03/03 08:02:50;;;;;;;25.60;14.30;;;3.10;99.90;;;;;;4966170;28;20621;-95
2021/03/03 08:05:34;;;;;;;29.33;15.03;;;3.20;99.90;;;;;;4959402;29;20182;-96
2021/03/03 08:08:29;;;;;;;24.50;14.53;;;3.20;99.90;;;;;;4972620;28;20194;-96
2021/03/03 08:10:58;;;;;;;24.73;14.83;;;3.30;99.90;;;;;;4977829;28;20255;-96
2021/03/03 08:13:40;;;;;;;24.03;14.27;;;3.50;99.90;;;;;;4972212;28;20749;-96
2021/03/03 08:16:07;;;;;;;27.60;15.23;;;3.50;99.90;;;;;;4958465;29;20275;-96
2021/03/03 08:18:35;;;;;;;30.07;16.00;;;3.60;99.90;;;;;;4960091;29;20188;-95
2021/03/03 08:21:10;;;;;;;27.87;15.37;;;3.70;99.90;;;;;;4962394;29;20205;-96
2021/03/03 08:23:40;;;;;;;29.00;14.87;;;3.90;99.90;;;;;;4973030;28;20196;-96
2021/03/03 08:26:17;;;;;;;22.87;14.37;;;4.00;99.90;;;;;;4977655;28;20185;-96
2021/03/03 08:28:52;;;;;;;23.43;13.10;;;4.20;99.90;;;;;;4964181;28;20193;-96
2021/03/03 08:31:24;;;;;;;25.90;13.70;;;4.30;99.90;;;;;;4977115;28;20181;-96
2021/03/03 08:33:51;;;;;;;24.63;13.80;;;4.50;99.90;;;;;;4979765;28;20652;-96
2021/03/03 08:36:28;;;;;;;23.83;12.93;;;4.60;99.90;;;;;;4980435;28;20195;-96
2021/03/03 08:38:57;;;;;;;23.87;13.17;;;4.70;99.90;;;;;;4970561;28;20189;-96
2021/03/03 08:41:26;;;;;;;25.23;13.60;;;4.90;99.90;;;;;;4979448;28;20224;-96
2021/03/03 08:44:17;;;;;;;24.43;12.93;;;4.90;99.90;;;;;;4980943;28;20292;-94
2021/03/03 08:46:44;;;;;;;25.37;13.67;;;5.10;99.90;;;;;;4977885;28;20188;-96
2021/03/03 08:49:16;;;;;;;25.43;13.03;;;5.20;99.90;;;;;;4971682;28;20189;-94
2021/03/03 08:51:47;;;;;;;23.80;14.07;;;5.30;99.90;;;;;;4957981;29;20173;-96
2021/03/03 08:54:17;;;;;;;23.37;13.00;;;5.40;99.90;;;;;;4959806;28;20187;-94
2021/03/03 08:56:51;;;;;;;22.83;13.90;;;5.50;99.90;;;;;;4972168;28;20180;-94
2021/03/03 08:59:32;;;;;;;23.23;13.47;;;5.60;99.90;;;;;;4957881;28;20226;-94
2021/03/03 09:02:18;;;;;;;22.20;12.43;;;5.80;99.90;;;;;;4969352;28;20219;-94
2021/03/03 09:04:48;;;;;;;22.10;12.90;;;5.90;99.90;;;;;;4967768;28;20246;-93
2021/03/03 09:07:19;;;;;;;24.10;13.33;;;6.00;99.90;;;;;;4972192;28;20176;-94
2021/03/03 09:09:51;;;;;;;25.43;14.43;;;6.20;99.90;;;;;;4975375;28;20192;-94
2021/03/03 09:12:19;;;;;;;22.30;13.73;;;6.30;99.90;;;;;;4976199;28;20219;-93
2021/03/03 09:14:46;;;;;;;26.40;13.23;;;6.40;99.90;;;;;;4979600;28;20189;-94
2021/03/03 09:17:16;;;;;;;24.67;12.70;;;6.50;99.90;;;;;;4975630;28;20195;-95
2021/03/03 09:19:43;;;;;;;22.13;13.13;;;6.60;99.90;;;;;;4955080;28;20670;-93
2021/03/03 09:22:21;;;;;;;28.37;13.20;;;6.70;99.90;;;;;;4962676;28;20240;-93
2021/03/03 09:24:53;;;;;;;25.93;13.40;;;6.80;99.90;;;;;;4972843;28;20643;-93
2021/03/03 09:27:20;;;;;;;23.67;12.57;;;7.00;99.90;;;;;;4968321;28;20541;-94
2021/03/03 09:29:47;;;;;;;20.87;12.57;;;7.10;99.90;;;;;;4981960;28;20275;-92
2021/03/03 09:32:21;;;;;;;20.07;12.37;;;7.20;99.90;;;;;;4977134;28;20277;-92
2021/03/03 09:35:00;;;;;;;21.07;12.40;;;7.40;99.90;;;;;;4958961;28;20266;-93
2021/03/03 09:37:33;;;;;;;22.87;12.97;;;7.50;99.90;;;;;;4959319;28;20294;-94
2021/03/03 09:40:00;;;;;;;21.87;12.70;;;7.60;99.90;;;;;;4969465;28;20196;-92
2021/03/03 09:42:26;;;;;;;23.00;13.53;;;7.60;99.90;;;;;;4961772;28;20322;-92
2021/03/03 09:44:57;;;;;;;23.10;13.23;;;7.70;99.90;;;;;;4968461;28;20605;-92
2021/03/03 09:47:31;;;;;;;24.23;12.73;;;7.80;99.90;;;;;;4964834;28;20231;-92
2021/03/03 09:49:57;;;;;;;19.63;12.27;;;8.00;99.90;;;;;;4973043;28;20545;-93
2021/03/03 09:52:34;;;;;;;17.57;11.53;;;8.20;99.90;;;;;;4969499;28;20220;-93
2021/03/03 09:54:59;;;;;;;29.27;12.00;;;8.30;99.90;;;;;;4974330;28;20184;-92
2021/03/03 09:57:26;;;;;;;20.03;11.97;;;8.40;99.90;;;;;;4981971;28;20214;-93
2021/03/03 09:59:55;;;;;;;20.13;11.60;;;8.50;99.90;;;;;;4971792;28;20281;-92
2021/03/03 10:02:28;;;;;;;18.80;11.37;;;8.70;99.90;;;;;;4971389;28;20235;-95
2021/03/03 10:04:55;;;;;;;22.73;12.13;;;8.90;99.90;;;;;;4956007;28;20204;-92
2021/03/03 10:07:23;;;;;;;19.77;11.13;;;9.00;99.90;;;;;;4984393;28;20279;-94
2021/03/03 10:09:57;;;;;;;24.27;11.47;;;9.20;99.90;;;;;;4971438;28;20235;-95
2021/03/03 10:12:26;;;;;;;19.93;11.23;;;9.30;99.90;;;;;;4983160;28;20187;-92
2021/03/03 10:15:02;;;;;;;15.47;10.60;;;9.30;99.90;;;;;;4974961;28;20247;-94
2021/03/03 10:17:33;;;;;;;17.50;10.63;;;9.30;99.90;;;;;;4977311;28;20188;-91
2021/03/03 10:20:00;;;;;;;17.93;11.57;;;9.20;99.90;;;;;;4978622;28;20195;-94
2021/03/03 10:22:27;;;;;;;19.07;10.97;;;9.20;99.90;;;;;;4977541;28;20235;-94
2021/03/03 10:25:01;;;;;;;19.30;10.53;;;9.20;99.90;;;;;;4976198;28;20284;-93
2021/03/03 10:27:29;;;;;;;22.80;10.73;;;9.10;99.90;;;;;;4973948;28;20269;-92
2021/03/03 10:29:55;;;;;;;19.10;11.23;;;9.20;99.90;;;;;;4974136;28;20199;-91
2021/03/03 10:32:21;;;;;;;20.73;11.57;;;9.20;99.90;;;;;;4980040;28;20990;-93
2021/03/03 10:34:47;;;;;;;21.63;11.50;;;9.30;99.90;;;;;;4971029;28;20224;-91
2021/03/03 10:37:39;;;;;;;21.67;11.03;;;9.40;99.90;;;;;;4979624;28;20191;-91
2021/03/03 10:40:13;;;;;;;18.77;10.87;;;9.60;99.90;;;;;;4969931;28;20332;-91
2021/03/03 10:42:39;;;;;;;21.00;12.13;;;9.70;99.90;;;;;;4979808;28;20298;-91
2021/03/03 10:45:18;;;;;;;17.60;11.70;;;9.90;99.90;;;;;;4979524;28;20220;-92
2021/03/03 10:47:50;;;;;;;18.17;11.37;;;10.00;99.90;;;;;;4966305;28;20599;-91
2021/03/03 10:50:20;;;;;;;19.07;11.37;;;10.00;99.90;;;;;;4989025;28;20184;-93
2021/03/03 10:53:01;;;;;;;20.57;11.00;;;10.10;99.90;;;;;;4981157;28;20188;-96
2021/03/03 10:55:38;;;;;;;19.27;11.30;;;10.30;99.90;;;;;;4985845;28;20626;-92
2021/03/03 10:58:17;;;;;;;17.27;11.10;;;10.40;99.90;;;;;;4997335;28;20266;-91
2021/03/03 11:01:04;;;;;;;23.07;11.20;;;10.60;99.90;;;;;;4997320;28;20566;-90
2021/03/03 11:03:47;;;;;;;17.93;10.97;;;10.80;99.90;;;;;;4997234;28;20619;-91
2021/03/03 11:06:13;;;;;;;16.47;10.77;;;10.80;99.90;;;;;;4997006;28;20179;-93
2021/03/03 11:08:38;;;;;;;23.00;12.07;;;10.90;99.90;;;;;;4996911;28;20176;-90
2021/03/03 11:11:06;;;;;;;20.13;10.67;;;11.00;99.90;;;;;;4976311;28;20195;-90
2021/03/03 11:13:33;;;;;;;16.23;10.07;;;11.20;99.90;;;;;;4977289;28;20279;-93
2021/03/03 11:16:00;;;;;;;17.03;9.70;;;11.50;99.90;;;;;;4977445;28;20193;-91
2021/03/03 11:18:26;;;;;;;15.93;10.67;;;11.50;99.90;;;;;;4962333;28;20193;-93
2021/03/03 11:20:52;;;;;;;18.85;10.75;;;11.40;99.90;;;;;;4962158;28;20204;-92
2021/03/03 11:23:18;;;;;;;21.50;11.03;;;11.40;99.90;;;;;;4977230;28;20188;-91
2021/03/03 11:25:44;;;;;;;20.25;10.98;;;11.50;99.90;;;;;;4976766;28;20161;-91
2021/03/03 11:28:11;;;;;;;18.05;11.02;;;11.60;99.90;;;;;;4976951;28;20791;-95
2021/03/03 11:30:38;;;;;;;18.83;9.85;;;11.70;99.90;;;;;;4985954;28;20262;-91
2021/03/03 11:33:04;;;;;;;16.73;10.83;;;11.90;99.90;;;;;;4968557;28;20646;-91
2021/03/03 11:35:30;;;;;;;16.65;10.02;;;11.90;99.90;;;;;;4976604;28;20189;-95
2021/03/03 11:37:55;;;;;;;17.77;9.45;;;12.00;99.90;;;;;;4976814;28;20201;-94
2021/03/03 11:40:21;;;;;;;19.27;10.97;;;12.00;99.90;;;;;;4960188;28;20230;-93
2021/03/03 11:42:47;;;;;;;17.58;10.55;;;12.20;99.90;;;;;;4975569;28;20232;-92
2021/03/03 11:45:14;;;;;;;18.58;9.98;;;12.20;99.90;;;;;;4969299;28;20809;-96
2021/03/03 11:47:39;;;;;;;17.02;10.50;;;12.10;99.90;;;;;;4946416;28;25641;-95
2021/03/03 11:50:06;;;;;;;15.57;10.40;;;12.10;99.90;;;;;;4953107;28;20682;-90
2021/03/03 11:52:32;;;;;;;16.17;9.73;;;12.00;99.90;;;;;;4967629;28;20207;-92
2021/03/03 11:54:58;;;;;;;17.35;10.43;;;11.90;99.90;;;;;;4965587;28;20196;-91
2021/03/03 11:57:24;;;;;;;20.27;10.38;;;11.80;99.90;;;;;;4976421;28;20632;-91
2021/03/03 11:59:51;;;;;;;20.98;10.98;;;11.70;99.90;;;;;;4976842;28;20678;-92
2021/03/03 12:02:17;;;;;;;20.90;11.30;;;11.70;99.90;;;;;;4966109;28;20322;-93
2021/03/03 12:04:43;;;;;;;16.92;10.55;;;11.70;99.90;;;;;;4973161;28;20654;-91
2021/03/03 12:07:09;;;;;;;16.67;10.63;;;11.60;99.90;;;;;;4971779;28;20234;-95
2021/03/03 12:09:36;;;;;;;20.50;11.52;;;11.60;99.90;;;;;;4985696;28;20196;-93
2021/03/03 12:12:02;;;;;;;19.52;11.20;;;11.60;99.90;;;;;;4971851;28;20180;-94
2021/03/03 12:14:28;;;;;;;19.00;11.60;;;11.70;99.90;;;;;;4968097;28;20196;-96
2021/03/03 12:16:54;;;;;;;22.30;11.03;;;11.70;99.90;;;;;;4962924;28;20185;-95
2021/03/03 12:19:19;;;;;;;20.38;11.32;;;11.80;99.90;;;;;;4982655;28;20214;-95
2021/03/03 12:21:45;;;;;;;24.73;12.15;;;12.00;99.90;;;;;;4988897;28;20220;-95
2021/03/03 12:24:12;;;;;;;17.65;10.63;;;12.10;99.90;;;;;;4983170;28;20181;-96
2021/03/03 12:26:38;;;;;;;22.95;10.80;;;12.30;99.90;;;;;;4995883;28;20619;-94
2021/03/03 12:29:04;;;;;;;21.80;11.70;;;12.40;99.90;;;;;;4994904;28;20168;-95
2021/03/03 12:31:30;;;;;;;19.70;11.52;;;12.50;99.90;;;;;;4996446;28;20179;-93
2021/03/03 12:33:56;;;;;;;20.42;11.32;;;12.60;99.90;;;;;;4996189;28;20187;-92
2021/03/03 12:36:22;;;;;;;18.92;10.95;;;12.60;99.90;;;;;;4997918;28;20204;-94
2021/03/03 12:38:47;;;;;;;24.98;11.07;;;12.70;99.90;;;;;;4997021;28;20170;-92
2021/03/03 12:41:13;;;;;;;20.50;11.98;;;12.70;99.90;;;;;;4977351;28;20289;-92
2021/03/03 12:43:39;;;;;;;21.58;10.48;;;12.70;99.90;;;;;;4959892;28;20193;-92
2021/03/03 12:46:05;;;;;;;21.75;12.00;;;12.90;99.90;;;;;;4956479;29;20216;-92
2021/03/03 12:48:30;;;;;;;24.15;11.93;;;12.90;99.90;;;;;;4957369;28;20173;-92